Time;durP1;ratioP1;P1;durP2;ratioP2;P2;SDS_P1;SDS_P2;PMS_P1;PMS_P2;Temp;Humidity;BMP_temperature;BMP_pressure;BME280_temperature;BME280_humidity;BME280_pressure;Samples;Min_cycle;Max_cycle;Signal;HPM_P1;HPM_P2
2022/08/24 00:02:14;;;;;;;24.73;22.08;;;19.90;99.90;;;;;;5021032;28;20053;-59
2022/08/24 00:04:40;;;;;;;27.45;24.55;;;19.80;99.90;;;;;;5020556;28;20041;-59
2022/08/24 00:07:07;;;;;;;25.33;22.23;;;19.80;99.90;;;;;;5022037;28;20043;-59
2022/08/24 00:09:33;;;;;;;21.70;19.40;;;19.80;99.90;;;;;;5021180;28;20088;-59
2022/08/24 00:11:59;;;;;;;25.98;23.23;;;19.80;99.90;;;;;;5021202;28;20081;-59
2022/08/24 00:14:24;;;;;;;26.50;22.08;;;19.80;99.90;;;;;;5019232;28;20076;-59
2022/08/24 00:16:50;;;;;;;26.17;21.77;;;19.80;99.90;;;;;;5020258;28;20503;-56
2022/08/24 00:19:16;;;;;;;28.42;25.17;;;19.70;99.90;;;;;;5021769;28;20500;-59
2022/08/24 00:21:42;;;;;;;25.75;22.58;;;19.70;99.90;;;;;;5020861;28;20042;-58
2022/08/24 00:24:08;;;;;;;27.10;23.20;;;19.70;99.90;;;;;;5022292;28;20064;-58
2022/08/24 00:26:34;;;;;;;23.52;20.67;;;19.70;99.90;;;;;;5018183;28;20045;-59
2022/08/24 00:29:00;;;;;;;24.95;22.20;;;19.70;99.90;;;;;;5021387;28;20053;-59
2022/08/24 00:31:26;;;;;;;26.45;21.90;;;19.70;99.90;;;;;;5036170;28;20488;-59
2022/08/24 00:33:53;;;;;;;24.05;21.48;;;19.70;99.90;;;;;;5021072;28;20052;-59
2022/08/24 00:36:20;;;;;;;21.35;19.15;;;19.70;99.90;;;;;;5020015;28;20446;-60
2022/08/24 00:38:47;;;;;;;22.42;20.02;;;19.70;99.90;;;;;;5019989;28;20395;-59
2022/08/24 00:41:14;;;;;;;20.92;18.73;;;19.70;99.90;;;;;;5021620;28;20096;-60
2022/08/24 00:43:53;;;;;;;29.55;26.42;;;19.60;99.90;;;;;;5020270;28;20510;-58
2022/08/24 00:46:26;;;;;;;23.45;20.95;;;19.60;99.90;;;;;;5024319;28;20069;-59
2022/08/24 00:49:22;;;;;;;25.20;20.38;;;19.60;99.90;;;;;;5025377;28;20045;-59
2022/08/24 00:51:55;;;;;;;22.92;20.08;;;19.60;99.90;;;;;;5025453;28;20088;-59
2022/08/24 00:54:21;;;;;;;;;;;19.50;99.90;;;;;;5025584;28;20060;-59
2022/08/24 00:56:52;;;;;;;16.98;15.15;;;19.50;99.90;;;;;;5024318;28;19928;-59
2022/08/24 00:59:29;;;;;;;19.05;17.10;;;19.40;99.90;;;;;;5024234;28;20046;-60
2022/08/24 01:01:57;;;;;;;17.20;15.50;;;19.40;99.90;;;;;;5023739;28;20104;-59
2022/08/24 01:04:34;;;;;;;15.70;14.10;;;19.40;99.90;;;;;;5024993;28;20131;-60
2022/08/24 01:07:00;;;;;;;12.80;11.52;;;19.40;99.90;;;;;;5022567;28;20518;-59
2022/08/24 01:09:25;;;;;;;10.05;9.10;;;19.30;99.90;;;;;;5023697;28;20033;-59
2022/08/24 01:11:52;;;;;;;13.93;12.20;;;19.30;99.90;;;;;;5024400;28;20060;-59
2022/08/24 01:14:19;;;;;;;15.77;14.18;;;19.30;99.90;;;;;;5023095;28;20171;-59
2022/08/24 01:19:39;;;;;;;20.17;18.08;;;19.20;99.90;;;;;;5023553;28;20136;-59
2022/08/24 01:22:11;;;;;;;19.80;17.27;;;19.20;99.90;;;;;;5026131;28;20472;-58
2022/08/24 01:24:37;;;;;;;18.50;15.45;;;19.10;99.90;;;;;;5022637;28;20116;-59
2022/08/24 01:27:04;;;;;;;16.00;13.98;;;19.10;99.90;;;;;;5023892;28;20439;-60
2022/08/24 01:29:30;;;;;;;17.73;15.93;;;19.10;99.90;;;;;;5024835;28;20566;-59
2022/08/24 01:31:57;;;;;;;18.42;15.45;;;19.10;99.90;;;;;;4991424;28;20499;-59
2022/08/24 01:34:23;;;;;;;13.20;11.88;;;19.00;99.90;;;;;;5024706;28;20053;-60
2022/08/24 01:36:54;;;;;;;18.50;14.20;;;18.90;99.90;;;;;;5024255;28;20053;-59
2022/08/24 01:39:23;;;;;;;16.38;14.57;;;18.90;99.90;;;;;;5023105;28;20045;-59
2022/08/24 01:41:49;;;;;;;14.57;13.07;;;18.90;99.90;;;;;;5022168;28;20044;-59
2022/08/24 01:44:16;;;;;;;13.82;12.43;;;18.80;99.90;;;;;;5038624;28;20045;-59
2022/08/24 01:46:52;;;;;;;17.52;15.73;;;18.80;99.90;;;;;;5023658;28;20126;-58
2022/08/24 01:49:19;;;;;;;23.42;20.42;;;18.80;99.90;;;;;;5023527;28;20045;-60
2022/08/24 01:51:45;;;;;;;22.83;20.42;;;18.80;99.90;;;;;;5024060;28;20038;-60
2022/08/24 01:54:13;;;;;;;22.98;20.30;;;18.80;99.90;;;;;;5022453;28;20061;-59
2022/08/24 01:56:39;;;;;;;32.08;18.52;;;18.80;99.90;;;;;;5022436;28;20240;-57
2022/08/24 01:59:06;;;;;;;17.20;15.45;;;18.80;99.90;;;;;;5022722;28;20045;-59
2022/08/24 02:01:36;;;;;;;22.27;19.88;;;18.80;99.90;;;;;;5023053;28;20045;-59
2022/08/24 02:04:05;;;;;;;25.67;22.67;;;18.80;99.90;;;;;;5023156;28;20053;-59
2022/08/24 02:06:32;;;;;;;27.90;21.55;;;18.80;99.90;;;;;;5021840;28;20037;-59
2022/08/24 02:08:58;;;;;;;68.15;21.40;;;18.80;99.90;;;;;;5038533;28;20093;-58
2022/08/24 02:11:24;;;;;;;23.58;19.63;;;18.80;99.90;;;;;;5023657;28;20495;-59
2022/08/24 02:13:50;;;;;;;27.95;24.85;;;18.80;99.90;;;;;;5023600;28;20060;-59
2022/08/24 02:16:16;;;;;;;28.33;23.25;;;18.80;99.90;;;;;;5022342;28;20388;-59
2022/08/24 02:18:42;;;;;;;26.40;22.92;;;18.80;99.90;;;;;;5021677;28;20077;-59
2022/08/24 02:21:10;;;;;;;28.38;23.48;;;18.80;99.90;;;;;;5022445;28;20103;-58
2022/08/24 02:23:37;;;;;;;29.48;24.63;;;18.70;99.90;;;;;;5023127;28;20052;-59
2022/08/24 02:26:04;;;;;;;25.52;22.60;;;18.70;99.90;;;;;;5023071;28;20165;-59
2022/08/24 02:28:31;;;;;;;27.05;23.95;;;18.70;99.90;;;;;;5022354;28;20079;-60
2022/08/24 02:30:57;;;;;;;21.75;19.15;;;18.70;99.90;;;;;;5022489;28;20103;-59
2022/08/24 02:33:23;;;;;;;18.15;15.52;;;18.70;99.90;;;;;;5020607;28;20041;-59
2022/08/24 02:35:50;;;;;;;21.75;17.88;;;18.70;99.90;;;;;;5021887;28;20386;-59
2022/08/24 02:38:16;;;;;;;20.67;17.67;;;18.70;99.90;;;;;;5005704;28;20056;-58
2022/08/24 02:40:42;;;;;;;16.50;14.20;;;18.70;99.90;;;;;;5022272;28;20052;-59
2022/08/24 02:43:08;;;;;;;17.25;15.45;;;18.60;99.90;;;;;;5022431;28;20045;-58
2022/08/24 02:45:42;;;;;;;19.20;17.10;;;18.60;99.90;;;;;;5037431;28;20041;-59
2022/08/24 02:48:09;;;;;;;19.63;16.55;;;18.60;99.90;;;;;;5021005;28;20403;-59
2022/08/24 02:50:41;;;;;;;23.85;18.00;;;18.60;99.90;;;;;;5021838;28;20041;-59
2022/08/24 02:53:07;;;;;;;15.82;14.23;;;18.60;99.90;;;;;;5021365;28;20119;-59
2022/08/24 02:55:34;;;;;;;14.93;13.50;;;18.60;99.90;;;;;;5023199;28;20463;-59
2022/08/24 02:58:00;;;;;;;15.23;13.27;;;18.50;99.90;;;;;;5021161;28;20107;-59
2022/08/24 03:00:26;;;;;;;14.95;13.45;;;18.50;99.90;;;;;;5020821;28;20053;-58
2022/08/24 03:02:53;;;;;;;15.85;14.25;;;18.50;99.90;;;;;;5021666;28;20108;-59
2022/08/24 03:05:20;;;;;;;14.85;13.27;;;18.50;99.90;;;;;;5021531;28;20475;-59
2022/08/24 03:07:46;;;;;;;13.82;12.43;;;18.40;99.90;;;;;;5021113;28;20052;-59
2022/08/24 03:10:12;;;;;;;12.07;10.98;;;18.40;99.90;;;;;;5020669;28;20108;-59
2022/08/24 03:12:39;;;;;;;12.63;11.43;;;18.40;99.90;;;;;;5020448;28;20542;-59
2022/08/24 03:15:07;;;;;;;12.50;11.30;;;18.40;99.90;;;;;;5020934;28;20385;-59
2022/08/24 03:17:33;;;;;;;13.68;12.27;;;18.30;99.90;;;;;;5021541;28;20315;-58
2022/08/24 03:20:00;;;;;;;11.90;10.70;;;18.30;99.90;;;;;;5021181;28;20163;-58
2022/08/24 03:22:26;;;;;;;14.10;12.70;;;18.30;99.90;;;;;;5021361;28;20049;-59
2022/08/24 03:24:52;;;;;;;14.55;12.80;;;18.30;99.90;;;;;;5021292;28;20048;-59
2022/08/24 03:27:18;;;;;;;12.30;11.00;;;18.20;99.90;;;;;;5020945;28;20132;-57
2022/08/24 03:29:44;;;;;;;16.67;14.85;;;18.20;99.90;;;;;;5021525;28;20041;-59
2022/08/24 03:32:10;;;;;;;15.05;13.45;;;18.20;99.90;;;;;;5020415;28;20542;-59
2022/08/24 03:34:36;;;;;;;18.50;16.30;;;18.20;99.90;;;;;;5005401;28;20496;-59
2022/08/24 03:37:03;;;;;;;18.27;14.63;;;18.20;99.90;;;;;;5020661;28;20567;-59
2022/08/24 03:39:29;;;;;;;17.70;15.75;;;18.20;99.90;;;;;;5021635;28;20045;-59
2022/08/24 03:41:55;;;;;;;16.05;14.35;;;18.20;99.90;;;;;;5019855;28;20038;-58
2022/08/24 03:44:23;;;;;;;15.13;13.30;;;18.20;99.90;;;;;;5021670;28;20064;-58
2022/08/24 03:46:50;;;;;;;15.27;12.63;;;18.20;99.90;;;;;;5022933;28;20052;-59
2022/08/24 03:49:17;;;;;;;14.73;13.23;;;18.20;99.90;;;;;;5021198;28;20053;-58
2022/08/24 03:51:42;;;;;;;15.95;12.85;;;18.20;99.90;;;;;;5020932;28;20049;-59
2022/08/24 03:54:10;;;;;;;13.77;11.75;;;18.20;99.90;;;;;;5019610;28;20056;-59
2022/08/24 03:56:36;;;;;;;13.95;11.95;;;18.20;99.90;;;;;;5019612;28;20048;-59
2022/08/24 03:59:02;;;;;;;15.50;13.77;;;18.20;99.90;;;;;;5021952;28;20073;-60
2022/08/24 04:01:28;;;;;;;19.50;15.50;;;18.20;99.90;;;;;;5020244;28;20033;-60
2022/08/24 04:03:54;;;;;;;17.17;13.20;;;18.20;99.90;;;;;;5020418;28;20049;-59
2022/08/24 04:06:21;;;;;;;13.68;12.27;;;18.20;99.90;;;;;;5019216;28;20137;-57
2022/08/24 04:08:47;;;;;;;20.30;16.13;;;18.10;99.90;;;;;;5020622;28;20504;-58
2022/08/24 04:11:19;;;;;;;26.73;20.15;;;18.10;99.90;;;;;;5003378;28;20054;-59
2022/08/24 04:13:46;;;;;;;17.48;15.63;;;18.10;99.90;;;;;;5021151;28;20061;-58
2022/08/24 04:16:16;;;;;;;15.70;13.60;;;18.10;99.90;;;;;;5019835;28;20045;-57
2022/08/24 04:18:43;;;;;;;14.43;12.93;;;18.10;99.90;;;;;;5020668;28;20516;-59
2022/08/24 04:21:21;;;;;;;13.77;12.38;;;18.00;99.90;;;;;;5021436;28;20452;-59
2022/08/24 04:23:47;;;;;;;15.02;13.35;;;18.00;99.90;;;;;;5023119;28;20179;-59
2022/08/24 04:26:15;;;;;;;11.98;10.65;;;18.00;99.90;;;;;;5024213;28;20060;-59
2022/08/24 04:28:41;;;;;;;11.70;10.45;;;17.90;99.90;;;;;;5026542;28;20053;-58
2022/08/24 04:31:07;;;;;;;11.07;9.98;;;17.90;99.90;;;;;;5022299;28;20437;-57
2022/08/24 04:33:33;;;;;;;11.95;10.55;;;17.90;99.90;;;;;;5023408;28;20610;-59
2022/08/24 04:35:59;;;;;;;12.60;11.38;;;17.90;99.90;;;;;;5023054;28;20076;-59
2022/08/24 04:38:25;;;;;;;12.77;11.48;;;17.80;99.90;;;;;;5038758;28;20041;-60
2022/08/24 04:40:51;;;;;;;11.43;10.30;;;17.80;99.90;;;;;;5021890;28;20085;-57
2022/08/24 04:43:17;;;;;;;10.77;9.77;;;17.80;99.90;;;;;;5024260;28;20435;-59
2022/08/24 04:45:45;;;;;;;11.18;10.00;;;17.80;99.90;;;;;;5023781;28;20041;-59
2022/08/24 04:48:13;;;;;;;11.40;10.23;;;17.80;99.90;;;;;;5023791;28;20128;-59
2022/08/24 04:50:41;;;;;;;12.93;11.55;;;17.80;99.90;;;;;;5023124;28;20103;-60
2022/08/24 04:53:08;;;;;;;12.50;11.30;;;17.80;99.90;;;;;;5024685;28;20045;-58
2022/08/24 04:55:46;;;;;;;11.48;10.38;;;17.80;99.90;;;;;;5023024;28;20053;-59
2022/08/24 04:58:16;;;;;;;15.02;13.60;;;17.80;99.90;;;;;;5023464;28;20054;-59
2022/08/24 05:00:43;;;;;;;15.88;13.68;;;17.80;99.90;;;;;;5022154;28;20107;-59
2022/08/24 05:03:10;;;;;;;19.52;16.63;;;17.80;99.90;;;;;;5023525;28;20472;-58
2022/08/24 05:05:46;;;;;;;21.17;17.67;;;17.90;99.90;;;;;;5022175;28;20047;-58
2022/08/24 05:08:13;;;;;;;25.30;19.75;;;17.90;99.90;;;;;;5024000;28;20042;-59
2022/08/24 05:10:41;;;;;;;22.00;18.95;;;18.00;99.90;;;;;;5024116;28;20045;-59
2022/08/24 05:13:07;;;;;;;23.25;20.80;;;18.00;99.90;;;;;;5023222;28;20042;-58
2022/08/24 05:15:34;;;;;;;23.15;18.85;;;18.10;99.90;;;;;;5023899;28;20609;-59
2022/08/24 05:18:02;;;;;;;21.58;18.20;;;18.10;99.90;;;;;;5022650;28;20045;-59
2022/08/24 05:20:28;;;;;;;20.67;18.02;;;18.10;99.90;;;;;;5023886;28;20644;-58
2022/08/24 05:22:54;;;;;;;19.58;17.48;;;18.10;99.90;;;;;;5024387;28;20046;-58
2022/08/24 05:25:20;;;;;;;21.90;17.92;;;18.10;99.90;;;;;;5023804;28;20783;-58
2022/08/24 05:27:47;;;;;;;23.08;18.83;;;18.10;99.90;;;;;;5024369;28;20447;-59
2022/08/24 05:30:13;;;;;;;20.23;18.08;;;18.20;99.90;;;;;;5022691;28;20041;-59
2022/08/24 05:32:39;;;;;;;21.48;18.80;;;18.20;99.90;;;;;;5023565;28;20084;-59
2022/08/24 05:35:06;;;;;;;23.05;20.63;;;18.20;99.90;;;;;;5023386;28;20126;-59
2022/08/24 05:37:37;;;;;;;22.45;19.00;;;18.20;99.90;;;;;;5022304;28;20055;-57
2022/08/24 05:40:06;;;;;;;24.08;18.60;;;18.20;99.90;;;;;;5022859;28;20132;-59
2022/08/24 05:42:32;;;;;;;22.67;20.33;;;18.30;99.90;;;;;;5023530;28;20357;-59
2022/08/24 05:44:58;;;;;;;32.58;25.77;;;18.30;99.90;;;;;;5006273;28;20056;-59
2022/08/24 05:47:24;;;;;;;28.77;24.75;;;18.30;99.90;;;;;;5023968;28;20500;-59
2022/08/24 05:49:53;;;;;;;28.38;25.00;;;18.30;99.90;;;;;;5020750;28;20542;-59
2022/08/24 05:52:22;;;;;;;35.05;29.50;;;18.40;99.90;;;;;;5021874;28;20118;-59
2022/08/24 05:54:56;;;;;;;37.55;31.67;;;18.50;99.90;;;;;;5024083;28;20045;-59
2022/08/24 05:57:23;;;;;;;35.60;31.52;;;18.50;99.90;;;;;;5020528;28;20053;-58
2022/08/24 05:59:49;;;;;;;38.10;32.08;;;18.60;99.90;;;;;;5022879;28;20041;-59
2022/08/24 06:02:16;;;;;;;37.83;31.55;;;18.60;99.90;;;;;;5023531;28;20171;-59
2022/08/24 06:04:42;;;;;;;37.70;31.17;;;18.70;99.90;;;;;;5021980;28;20048;-57
2022/08/24 06:07:09;;;;;;;38.50;32.30;;;18.70;99.90;;;;;;5021791;28;20046;-59
2022/08/24 06:09:35;;;;;;;38.95;30.83;;;18.80;99.90;;;;;;5022115;28;20437;-59
2022/08/24 06:12:01;;;;;;;33.53;29.40;;;18.80;99.90;;;;;;5037229;28;20677;-57
2022/08/24 06:14:27;;;;;;;34.13;26.83;;;18.90;99.90;;;;;;5023316;28;20049;-59
2022/08/24 06:16:53;;;;;;;43.05;32.22;;;18.90;99.90;;;;;;5022014;28;20506;-58
2022/08/24 06:19:19;;;;;;;43.92;35.20;;;19.00;99.90;;;;;;5021181;28;20102;-59
2022/08/24 06:21:47;;;;;;;45.55;34.92;;;19.00;99.90;;;;;;5022331;28;20064;-59
2022/08/24 06:24:17;;;;;;;40.40;33.35;;;19.10;99.90;;;;;;5021561;28;20072;-58
2022/08/24 06:29:28;;;;;;;43.58;33.08;;;19.20;99.90;;;;;;5022064;28;20087;-59
2022/08/24 06:31:55;;;;;;;45.88;35.08;;;19.30;99.90;;;;;;5022130;28;20689;-59
2022/08/24 06:34:22;;;;;;;42.33;35.92;;;19.30;99.90;;;;;;5022852;28;20538;-59
2022/08/24 06:36:48;;;;;;;44.90;36.25;;;19.50;99.90;;;;;;5020688;28;20045;-59
2022/08/24 06:39:14;;;;;;;41.80;34.13;;;19.50;99.90;;;;;;5021127;28;20126;-58
2022/08/24 06:41:40;;;;;;;39.13;33.13;;;19.60;99.90;;;;;;5023301;28;20049;-58
2022/08/24 06:44:07;;;;;;;37.03;28.65;;;19.70;99.90;;;;;;5023527;28;20056;-58
2022/08/24 06:46:35;;;;;;;35.28;27.92;;;19.80;99.90;;;;;;5020011;28;20499;-60
2022/08/24 06:49:01;;;;;;;32.33;26.67;;;19.90;99.90;;;;;;5022480;28;20056;-59
2022/08/24 06:51:27;;;;;;;33.53;25.40;;;20.00;99.90;;;;;;5021640;28;20084;-59
2022/08/24 06:53:57;;;;;;;33.42;22.67;;;20.10;99.90;;;;;;5022562;28;20091;-60
2022/08/24 06:56:23;;;;;;;31.08;21.40;;;20.20;99.90;;;;;;5022127;28;20096;-59
2022/08/24 06:58:49;;;;;;;27.40;20.17;;;20.30;99.90;;;;;;5021685;28;20053;-60
2022/08/24 07:01:22;;;;;;;31.75;20.80;;;20.40;99.90;;;;;;5021851;28;20045;-59
2022/08/24 07:03:48;;;;;;;29.17;19.55;;;20.40;99.90;;;;;;5021290;28;20043;-59
2022/08/24 07:06:15;;;;;;;28.55;21.63;;;20.60;99.90;;;;;;5020244;28;20037;-58
2022/08/24 07:08:42;;;;;;;26.50;19.85;;;20.70;99.90;;;;;;5023106;28;20049;-59
2022/08/24 07:11:13;;;;;;;25.88;17.70;;;20.70;99.90;;;;;;5022545;28;20060;-59
2022/08/24 07:13:39;;;;;;;22.48;15.20;;;20.80;99.90;;;;;;5020309;28;20064;-58
2022/08/24 07:16:06;;;;;;;24.00;13.85;;;20.90;99.90;;;;;;5020432;28;20169;-59
2022/08/24 07:18:32;;;;;;;21.38;13.93;;;21.00;99.90;;;;;;5021434;28;20472;-60
2022/08/24 07:21:01;;;;;;;19.63;13.18;;;21.10;99.90;;;;;;5020856;28;20045;-58
2022/08/24 07:23:27;;;;;;;15.23;11.25;;;21.20;99.90;;;;;;5021929;28;20045;-59
2022/08/24 07:25:53;;;;;;;18.25;11.73;;;21.30;99.90;;;;;;5021290;28;20072;-59
2022/08/24 07:28:19;;;;;;;17.73;10.95;;;21.40;99.90;;;;;;5021002;28;20045;-59
2022/08/24 07:30:45;;;;;;;14.68;10.05;;;21.50;99.90;;;;;;5019058;28;20979;-57
2022/08/24 07:33:11;;;;;;;13.70;10.13;;;21.60;99.90;;;;;;5004985;28;20534;-59
2022/08/24 07:35:37;;;;;;;15.65;10.07;;;21.70;99.90;;;;;;5020129;28;20495;-59
2022/08/24 07:38:04;;;;;;;15.32;10.23;;;21.80;99.90;;;;;;5020712;28;20368;-59
2022/08/24 07:40:31;;;;;;;17.30;11.13;;;22.00;99.90;;;;;;5019446;28;20302;-60
2022/08/24 07:42:57;;;;;;;20.38;12.65;;;22.20;99.90;;;;;;5019600;28;20084;-59
2022/08/24 07:45:25;;;;;;;19.02;11.20;;;22.30;99.90;;;;;;5020115;28;20041;-60
2022/08/24 07:47:51;;;;;;;13.95;10.05;;;22.40;99.90;;;;;;5020702;28;20125;-59
2022/08/24 07:50:18;;;;;;;19.52;10.82;;;22.50;99.90;;;;;;5020995;28;20400;-60
2022/08/24 07:52:45;;;;;;;16.85;9.82;;;22.70;99.90;;;;;;5019512;28;20057;-59
2022/08/24 07:55:12;;;;;;;12.43;8.32;;;22.80;99.90;;;;;;5016325;28;20053;-60
2022/08/24 07:57:39;;;;;;;15.90;8.45;;;23.00;99.90;;;;;;5021502;28;20519;-59
2022/08/24 08:00:09;;;;;;;12.43;8.82;;;23.10;99.90;;;;;;5021383;28;20053;-59
2022/08/24 08:02:37;;;;;;;13.63;7.78;;;23.20;99.90;;;;;;5019913;28;20796;-59
2022/08/24 08:05:04;;;;;;;13.75;7.65;;;23.40;99.90;;;;;;5020320;28;20045;-59
2022/08/24 08:07:30;;;;;;;12.93;9.10;;;23.50;99.90;;;;;;5020346;28;20421;-59
2022/08/24 08:09:56;;;;;;;11.40;9.10;;;23.70;99.90;;;;;;5020513;28;20041;-59
2022/08/24 08:12:22;;;;;;;11.02;9.68;;;23.80;99.90;;;;;;5020274;28;20049;-59
2022/08/24 08:14:48;;;;;;;13.00;11.07;;;23.90;99.90;;;;;;5019881;28;20060;-60
2022/08/24 08:17:15;;;;;;;11.38;10.13;;;24.00;99.90;;;;;;5036861;28;20060;-60
2022/08/24 08:19:42;;;;;;;14.25;10.32;;;24.10;99.90;;;;;;5018881;28;20104;-61
2022/08/24 08:24:53;;;;;;;15.68;10.40;;;24.40;99.90;;;;;;5021098;28;20132;-60
2022/08/24 08:27:20;;;;;;;15.30;10.68;;;24.50;99.90;;;;;;5019679;28;20108;-60
2022/08/24 08:29:47;;;;;;;17.77;10.85;;;24.60;99.90;;;;;;5019675;28;20045;-60
2022/08/24 08:32:15;;;;;;;17.10;10.45;;;24.80;99.90;;;;;;5018880;28;20069;-60
2022/08/24 08:34:42;;;;;;;15.48;10.60;;;24.80;99.90;;;;;;5018526;28;20208;-60
2022/08/24 08:37:09;;;;;;;10.52;8.65;;;24.90;99.90;;;;;;5017804;28;20049;-59
2022/08/24 08:39:35;;;;;;;15.32;8.40;;;25.00;99.90;;;;;;5019748;28;20038;-60
2022/08/24 08:42:07;;;;;;;12.70;8.55;;;25.10;99.90;;;;;;5021104;28;20435;-60
2022/08/24 08:45:03;;;;;;;12.57;7.72;;;25.20;99.70;;;;;;5022142;28;20693;-60
2022/08/24 08:47:44;;;;;;;12.18;7.40;;;25.40;99.60;;;;;;5002986;28;20049;-60
2022/08/24 08:50:17;;;;;;;9.98;6.68;;;25.50;99.20;;;;;;5021012;28;20045;-61
2022/08/24 08:53:12;;;;;;;9.40;6.47;;;25.60;99.00;;;;;;5019132;28;20060;-60
2022/08/24 08:55:47;;;;;;;8.95;6.28;;;25.80;98.90;;;;;;5018703;28;20049;-59
2022/08/24 08:58:45;;;;;;;9.63;6.25;;;25.90;98.30;;;;;;5019324;28;20053;-59
2022/08/24 09:01:16;;;;;;;12.18;6.05;;;26.10;98.30;;;;;;5035661;28;20052;-60
2022/08/24 09:04:25;;;;;;;8.93;5.65;;;26.20;97.90;;;;;;5018776;28;20091;-60
2022/08/24 09:06:56;;;;;;;8.25;5.45;;;26.30;97.40;;;;;;4989969;28;20502;-60
2022/08/24 09:09:40;;;;;;;10.73;5.82;;;26.50;97.00;;;;;;5022705;28;20060;-61
2022/08/24 09:12:27;;;;;;;13.70;5.38;;;26.60;96.90;;;;;;5023609;28;20463;-59
2022/08/24 09:15:04;;;;;;;13.75;6.43;;;26.70;96.40;;;;;;5024941;28;20041;-60
2022/08/24 09:17:55;;;;;;;9.80;5.40;;;26.90;96.10;;;;;;5024553;28;20060;-60
2022/08/24 09:20:43;;;;;;;14.27;6.07;;;27.00;96.00;;;;;;5022412;28;20526;-60
2022/08/24 09:23:21;;;;;;;10.45;4.50;;;27.10;95.40;;;;;;5022445;28;20081;-61
2022/08/24 09:26:24;;;;;;;9.18;5.50;;;27.30;95.60;;;;;;5023210;28;20049;-60
2022/08/24 09:29:38;;;;;;;8.07;4.97;;;27.40;95.20;;;;;;5024245;28;20045;-60
2022/08/24 09:32:09;;;;;;;8.00;4.70;;;27.50;95.00;;;;;;5022614;28;20049;-61
2022/08/24 09:34:55;;;;;;;7.23;5.37;;;27.70;94.50;;;;;;5022436;28;20370;-61
2022/08/24 09:37:48;;;;;;;7.13;3.95;;;27.80;93.70;;;;;;5022429;28;20045;-61
2022/08/24 09:40:36;;;;;;;8.80;4.97;;;27.90;94.20;;;;;;5022119;28;20052;-61
2022/08/24 09:43:35;;;;;;;10.55;4.00;;;28.00;93.30;;;;;;5022793;28;20458;-61
2022/08/24 09:46:37;;;;;;;5.53;3.90;;;28.20;92.90;;;;;;5022071;28;20144;-61
2022/08/24 09:49:40;;;;;;;6.45;4.20;;;28.30;93.00;;;;;;5021391;28;20041;-58
2022/08/24 09:52:34;;;;;;;6.70;3.65;;;28.40;92.50;;;;;;5021589;28;20053;-61
2022/08/24 09:55:25;;;;;;;10.43;4.68;;;28.60;92.10;;;;;;5022528;28;20056;-61
2022/08/24 09:58:19;;;;;;;5.32;4.10;;;28.70;91.00;;;;;;5022287;28;20037;-60
2022/08/24 10:01:21;;;;;;;8.20;4.18;;;28.80;91.40;;;;;;5022327;28;20033;-60
2022/08/24 10:04:07;;;;;;;6.50;4.45;;;28.90;91.20;;;;;;5008582;28;20057;-60
2022/08/24 10:07:02;;;;;;;6.25;4.65;;;29.10;90.90;;;;;;5023516;28;20037;-61
2022/08/24 10:10:00;;;;;;;6.30;3.88;;;29.20;90.60;;;;;;5022997;28;20480;-60
2022/08/24 10:12:49;;;;;;;9.10;4.18;;;29.40;90.20;;;;;;5021628;28;20060;-60
2022/08/24 10:15:18;;;;;;;6.47;3.70;;;29.50;89.50;;;;;;5022907;28;20055;-59
2022/08/24 10:17:50;;;;;;;12.88;4.00;;;29.60;88.00;;;;;;5023364;28;20427;-60
2022/08/24 10:20:24;;;;;;;7.63;4.47;;;29.70;87.30;;;;;;5019923;28;20056;-59
2022/08/24 10:23:26;;;;;;;7.38;4.40;;;29.80;85.80;;;;;;5022463;28;20045;-60
2022/08/24 10:26:03;;;;;;;7.13;3.90;;;29.90;84.80;;;;;;5020106;28;20107;-60
2022/08/24 10:28:56;;;;;;;5.90;3.30;;;29.90;83.40;;;;;;5037139;28;20093;-60
2022/08/24 10:31:33;;;;;;;9.60;3.95;;;30.00;85.50;;;;;;5020813;28;20495;-60
2022/08/24 10:34:13;;;;;;;5.43;3.53;;;30.20;84.20;;;;;;5022453;28;20049;-61
2022/08/24 10:36:42;;;;;;;5.57;2.78;;;30.30;82.70;;;;;;5022944;28;20045;-59
2022/08/24 10:39:42;;;;;;;4.90;1.95;;;30.40;81.20;;;;;;5020712;28;20095;-60
2022/08/24 10:45:44;;;;;;;3.95;2.60;;;30.70;81.60;;;;;;5020323;28;20111;-60
2022/08/24 10:48:29;;;;;;;5.68;2.88;;;30.90;80.60;;;;;;5021381;28;20099;-58
2022/08/24 10:51:10;;;;;;;4.53;2.47;;;31.20;79.10;;;;;;5022325;28;20147;-60
2022/08/24 10:53:36;;;;;;;3.53;1.90;;;31.40;79.30;;;;;;5021183;28;20057;-60
2022/08/24 10:56:07;;;;;;;4.28;2.30;;;31.50;78.40;;;;;;5020745;28;20061;-60
2022/08/24 10:58:56;;;;;;;5.65;2.30;;;31.60;78.10;;;;;;5020615;28;20037;-59
2022/08/24 11:01:37;;;;;;;7.82;1.75;;;31.70;76.50;;;;;;5019639;28;20394;-61
2022/08/24 11:04:10;;;;;;;5.43;2.05;;;31.90;76.30;;;;;;5019588;28;20128;-60
2022/08/24 11:07:00;;;;;;;2.20;1.80;;;32.00;75.60;;;;;;5021087;28;20045;-59
2022/08/24 11:09:42;;;;;;;6.57;1.73;;;32.20;73.70;;;;;;5019925;28;20046;-60
2022/08/24 11:12:28;;;;;;;;;;;32.20;73.30;;;;;;5019159;28;20045;-60
2022/08/24 11:14:57;;;;;;;5.63;2.35;;;32.00;72.70;;;;;;5021002;28;20280;-60
2022/08/24 11:17:25;;;;;;;3.47;1.67;;;31.70;73.10;;;;;;5019597;28;20129;-60
2022/08/24 11:19:52;;;;;;;2.67;1.60;;;31.40;72.50;;;;;;5018641;28;20041;-60
2022/08/24 11:22:26;;;;;;;6.65;1.80;;;31.20;72.20;;;;;;5020123;28;20114;-59
2022/08/24 11:25:10;;;;;;;4.28;1.80;;;30.90;72.50;;;;;;5020073;28;20152;-60
2022/08/24 11:27:40;;;;;;;4.50;1.70;;;31.10;72.30;;;;;;5020927;28;20044;-60
2022/08/24 11:30:28;;;;;;;7.65;1.88;;;31.40;72.00;;;;;;5020183;28;20045;-60
2022/08/24 11:33:03;;;;;;;6.45;1.77;;;31.60;71.30;;;;;;5021433;28;20053;-60
2022/08/24 11:35:32;;;;;;;3.10;1.30;;;31.60;70.00;;;;;;5018559;28;20049;-60
2022/08/24 11:38:19;;;;;;;5.20;1.42;;;31.80;70.50;;;;;;5020530;28;20053;-60
2022/08/24 11:41:07;;;;;;;2.95;1.40;;;32.10;69.90;;;;;;5019870;28;20045;-60
2022/08/24 11:44:02;;;;;;;5.82;1.40;;;32.10;69.70;;;;;;5018554;28;20151;-60
2022/08/24 11:46:41;;;;;;;1.73;1.42;;;32.00;68.90;;;;;;5018710;28;20044;-60
2022/08/24 11:49:37;;;;;;;7.53;1.40;;;32.10;69.20;;;;;;5020025;28;20131;-60
2022/08/24 11:52:35;;;;;;;2.83;1.42;;;32.40;69.90;;;;;;5019743;28;20065;-60
2022/08/24 11:55:09;;;;;;;4.95;1.40;;;32.50;68.10;;;;;;4997742;28;20907;-59
2022/08/24 11:57:53;;;;;;;5.85;1.60;;;32.50;67.80;;;;;;5020822;28;20494;-59
2022/08/24 12:00:22;;;;;;;6.25;1.70;;;32.40;67.60;;;;;;5020409;28;20462;-59
2022/08/24 12:03:01;;;;;;;3.92;1.70;;;32.40;67.80;;;;;;5018144;28;20049;-60
2022/08/24 12:05:33;;;;;;;4.65;1.77;;;32.50;66.60;;;;;;5034275;28;20061;-60
2022/08/24 12:08:11;;;;;;;2.83;1.20;;;32.70;65.80;;;;;;5018739;28;20053;-60
2022/08/24 12:10:57;;;;;;;1.63;1.30;;;32.90;66.50;;;;;;5018700;28;20045;-60
2022/08/24 12:13:43;;;;;;;2.38;1.40;;;33.40;65.50;;;;;;5019108;28;20038;-60
2022/08/24 12:16:44;;;;;;;1.42;1.25;;;33.70;63.70;;;;;;5020420;28;20567;-60
2022/08/24 12:19:21;;;;;;;3.40;1.83;;;34.10;64.30;;;;;;5006952;28;20061;-60
2022/08/24 12:21:51;;;;;;;3.45;1.63;;;34.30;62.50;;;;;;5019520;28;20037;-59
2022/08/24 12:24:26;;;;;;;1.92;1.50;;;34.10;61.40;;;;;;5019901;28;20084;-60
2022/08/24 12:27:15;;;;;;;3.67;1.60;;;33.90;61.90;;;;;;5019025;28;20184;-59
2022/08/24 12:29:56;;;;;;;4.00;1.50;;;33.90;62.30;;;;;;5018651;28;20068;-59
2022/08/24 12:32:44;;;;;;;5.35;1.60;;;33.70;62.00;;;;;;5018652;28;20504;-59
2022/08/24 12:35:20;;;;;;;2.30;1.50;;;33.70;63.00;;;;;;5019022;28;20057;-60
2022/08/24 12:38:02;;;;;;;5.63;1.30;;;33.90;63.40;;;;;;5019928;28;20114;-60
2022/08/24 12:40:34;;;;;;;1.77;1.02;;;34.20;61.90;;;;;;5019969;28;20566;-60
2022/08/24 12:43:05;;;;;;;3.63;1.48;;;34.50;61.80;;;;;;5024810;28;20545;-60
2022/08/24 12:45:31;;;;;;;2.75;1.20;;;34.70;60.20;;;;;;5023623;28;20060;-60
2022/08/24 12:48:14;;;;;;;3.65;1.30;;;34.60;60.00;;;;;;5024740;28;20439;-60
2022/08/24 12:50:50;;;;;;;2.75;1.45;;;34.30;59.60;;;;;;5022959;28;20484;-61
2022/08/24 12:53:48;;;;;;;2.63;1.30;;;34.00;59.60;;;;;;5022304;28;20073;-60
2022/08/24 12:56:23;;;;;;;3.17;1.20;;;33.70;59.50;;;;;;5023386;28;20488;-59
2022/08/24 12:59:07;;;;;;;3.97;1.60;;;33.50;60.90;;;;;;5023340;28;20041;-60
2022/08/24 13:01:40;;;;;;;4.03;1.23;;;33.30;60.90;;;;;;5021235;28;20559;-60
2022/08/24 13:04:11;;;;;;;2.08;1.27;;;33.20;60.40;;;;;;5022410;28;20077;-61
2022/08/24 13:06:39;;;;;;;3.67;1.10;;;33.30;61.60;;;;;;5022060;28;20476;-59
2022/08/24 13:09:33;;;;;;;2.95;1.20;;;33.40;61.50;;;;;;5023517;28;20522;-60
2022/08/24 13:12:44;;;;;;;2.28;1.13;;;33.40;60.90;;;;;;5023487;28;20053;-60